Time;durP1;ratioP1;P1;durP2;ratioP2;P2;SDS_P1;SDS_P2;PMS_P1;PMS_P2;Temp;Humidity;BMP_temperature;BMP_pressure;BME280_temperature;BME280_humidity;BME280_pressure;Samples;Min_cycle;Max_cycle;Signal;HPM_P1;HPM_P2
2022/11/12 00:00:57;;;;;;;16.10;9.18;;;4.40;99.90;;;;;;4989786;28;20511;-47
2022/11/12 00:03:23;;;;;;;16.27;8.98;;;4.40;99.90;;;;;;5006312;28;20026;-44
2022/11/12 00:05:50;;;;;;;19.85;9.48;;;4.30;99.90;;;;;;4989676;28;20038;-45
2022/11/12 00:08:16;;;;;;;14.30;8.95;;;4.30;99.90;;;;;;5005771;28;20502;-47
2022/11/12 00:10:41;;;;;;;12.73;8.05;;;4.30;99.90;;;;;;5008654;28;20045;-52
2022/11/12 00:13:07;;;;;;;16.92;9.45;;;4.30;99.90;;;;;;4993008;28;20116;-48
2022/11/12 00:15:32;;;;;;;16.95;9.65;;;4.20;99.90;;;;;;5005689;28;20030;-43
2022/11/12 00:17:58;;;;;;;16.00;9.23;;;4.20;99.90;;;;;;4989080;28;20065;-44
2022/11/12 00:20:23;;;;;;;16.52;9.20;;;4.20;99.90;;;;;;5007285;28;20038;-43
2022/11/12 00:22:49;;;;;;;13.35;7.93;;;4.10;99.90;;;;;;5006574;28;20041;-46
2022/11/12 00:25:14;;;;;;;17.17;8.35;;;4.10;99.90;;;;;;4989489;28;20041;-45
2022/11/12 00:27:40;;;;;;;18.60;8.18;;;4.10;99.90;;;;;;4980239;28;20034;-48
2022/11/12 00:30:06;;;;;;;14.13;8.13;;;4.10;99.90;;;;;;5007834;28;20038;-47
2022/11/12 00:32:36;;;;;;;16.23;8.27;;;4.10;99.90;;;;;;4987433;28;20045;-45
2022/11/12 00:35:02;;;;;;;18.67;9.70;;;4.00;99.90;;;;;;5008281;28;20191;-45
2022/11/12 00:37:28;;;;;;;17.08;8.88;;;4.00;99.90;;;;;;4987277;28;20109;-47
2022/11/12 00:39:53;;;;;;;20.65;9.48;;;4.00;99.90;;;;;;5007482;28;20450;-47
2022/11/12 00:42:19;;;;;;;17.40;8.25;;;4.00;99.90;;;;;;4987625;28;20030;-49
2022/11/12 00:44:44;;;;;;;23.30;10.02;;;3.90;99.90;;;;;;5007613;28;20049;-48
2022/11/12 00:47:10;;;;;;;16.65;8.85;;;3.90;99.90;;;;;;4987387;28;20033;-46
2022/11/12 00:49:35;;;;;;;16.42;8.73;;;3.90;99.90;;;;;;5007482;28;20513;-48
2022/11/12 00:52:01;;;;;;;18.45;9.38;;;3.90;99.90;;;;;;4987428;28;20034;-48
2022/11/12 00:54:26;;;;;;;16.65;8.55;;;3.80;99.90;;;;;;5007304;28;20482;-45
2022/11/12 00:56:52;;;;;;;17.63;8.98;;;3.80;99.90;;;;;;4987309;28;20419;-47
2022/11/12 00:59:17;;;;;;;14.13;7.60;;;3.80;99.90;;;;;;5007345;28;20033;-45
2022/11/12 01:01:43;;;;;;;12.13;7.10;;;3.70;99.90;;;;;;4997612;28;20029;-48
2022/11/12 01:04:09;;;;;;;18.10;8.52;;;3.70;99.90;;;;;;4989132;28;20030;-46
2022/11/12 01:06:38;;;;;;;14.52;7.55;;;3.70;99.90;;;;;;5005639;28;20038;-46
2022/11/12 01:09:04;;;;;;;12.02;7.63;;;3.70;99.90;;;;;;4988441;28;20030;-47
2022/11/12 01:11:29;;;;;;;16.70;8.77;;;3.70;99.90;;;;;;5005363;28;20105;-45
2022/11/12 01:14:01;;;;;;;17.67;7.75;;;3.70;99.90;;;;;;4988905;28;20672;-45
2022/11/12 01:16:29;;;;;;;13.27;7.53;;;3.60;99.90;;;;;;5005691;28;20580;-48
2022/11/12 01:18:57;;;;;;;12.55;6.80;;;3.60;99.90;;;;;;4988594;28;20120;-48
2022/11/12 01:21:28;;;;;;;13.82;8.52;;;3.60;99.90;;;;;;5007403;28;20034;-52
2022/11/12 01:23:55;;;;;;;12.20;7.15;;;3.60;99.90;;;;;;4992468;28;20121;-49
2022/11/12 01:26:21;;;;;;;11.75;7.28;;;3.60;99.90;;;;;;5002029;28;20133;-45
2022/11/12 01:28:47;;;;;;;10.82;6.53;;;3.60;99.90;;;;;;5011810;28;20101;-46
2022/11/12 01:31:24;;;;;;;14.35;7.57;;;3.60;99.90;;;;;;4996850;28;20459;-50
2022/11/12 01:33:53;;;;;;;13.95;7.50;;;3.50;99.90;;;;;;5011582;28;20486;-47
2022/11/12 01:36:19;;;;;;;16.08;7.13;;;3.50;99.90;;;;;;4997093;28;20040;-51
2022/11/12 01:38:46;;;;;;;15.50;8.30;;;3.50;99.90;;;;;;5005964;28;20050;-42
2022/11/12 01:41:18;;;;;;;13.15;7.35;;;3.50;99.90;;;;;;4996148;28;20022;-48
2022/11/12 01:43:44;;;;;;;13.63;7.55;;;3.50;99.90;;;;;;5011331;28;20034;-45
2022/11/12 01:46:24;;;;;;;15.38;7.43;;;3.50;99.90;;;;;;4996260;28;20119;-51
2022/11/12 01:48:55;;;;;;;16.85;8.20;;;3.50;99.90;;;;;;5011417;28;20406;-47
2022/11/12 01:51:24;;;;;;;13.30;6.47;;;3.40;99.90;;;;;;4985001;28;20033;-49
2022/11/12 01:53:53;;;;;;;10.38;6.68;;;3.40;99.90;;;;;;5011308;28;20037;-45
2022/11/12 01:56:21;;;;;;;11.63;6.53;;;3.40;99.90;;;;;;4996836;28;20033;-43
2022/11/12 01:58:50;;;;;;;14.63;7.43;;;3.40;99.90;;;;;;5011384;28;20296;-46
2022/11/12 02:01:16;;;;;;;11.85;6.75;;;3.40;99.90;;;;;;4996218;28;20500;-46
2022/11/12 02:03:41;;;;;;;11.68;6.85;;;3.40;99.90;;;;;;5011088;28;20033;-47
2022/11/12 02:06:12;;;;;;;11.40;6.38;;;3.40;99.90;;;;;;4995946;28;20052;-45
2022/11/12 02:08:38;;;;;;;8.57;5.45;;;3.40;99.90;;;;;;5010973;28;20030;-43
2022/11/12 02:11:18;;;;;;;10.60;6.40;;;3.40;99.90;;;;;;4994888;28;20026;-44
2022/11/12 02:14:01;;;;;;;13.75;6.40;;;3.30;99.90;;;;;;5010924;28;20037;-45
2022/11/12 02:16:32;;;;;;;8.38;5.28;;;3.30;99.90;;;;;;4986435;28;20474;-47
2022/11/12 02:18:57;;;;;;;11.95;6.20;;;3.30;99.90;;;;;;4971912;28;20193;-49
2022/11/12 02:21:24;;;;;;;9.02;5.38;;;3.30;99.90;;;;;;5007477;28;20109;-52
2022/11/12 02:23:57;;;;;;;7.43;4.90;;;3.30;99.90;;;;;;4991447;28;20027;-52
2022/11/12 02:26:23;;;;;;;9.38;5.97;;;3.30;99.90;;;;;;5004669;28;20133;-53
2022/11/12 02:28:48;;;;;;;12.32;6.47;;;3.30;99.90;;;;;;4991474;28;20554;-48
2022/11/12 02:31:14;;;;;;;12.98;7.15;;;3.20;99.90;;;;;;5007473;28;20056;-47
2022/11/12 02:33:39;;;;;;;10.02;6.68;;;3.20;99.90;;;;;;5010575;28;20100;-51
2022/11/12 02:36:05;;;;;;;10.70;6.35;;;3.10;99.90;;;;;;4994655;28;20021;-50
2022/11/12 02:38:30;;;;;;;11.50;6.80;;;3.10;99.90;;;;;;5007058;28;20049;-50
2022/11/12 02:40:56;;;;;;;10.57;6.13;;;3.10;99.90;;;;;;4992891;28;20045;-52
2022/11/12 02:43:21;;;;;;;14.20;7.68;;;3.10;99.90;;;;;;5010555;28;20032;-49
2022/11/12 02:45:47;;;;;;;12.40;7.15;;;3.00;99.90;;;;;;4992150;28;20034;-52
2022/11/12 02:48:12;;;;;;;15.32;7.82;;;3.00;99.90;;;;;;5010145;28;20037;-53
2022/11/12 02:50:38;;;;;;;14.25;7.47;;;3.00;99.90;;;;;;4991001;28;20044;-51
2022/11/12 02:53:03;;;;;;;18.63;7.05;;;3.00;99.90;;;;;;5010042;28;20025;-52
2022/11/12 02:55:29;;;;;;;9.00;5.65;;;3.00;99.90;;;;;;4989534;28;20113;-48
2022/11/12 02:57:58;;;;;;;15.63;7.32;;;2.90;99.90;;;;;;5010104;28;20034;-54
2022/11/12 03:00:23;;;;;;;13.43;6.68;;;2.90;99.90;;;;;;4990939;28;20126;-53
2022/11/12 03:02:58;;;;;;;12.18;6.85;;;2.90;99.90;;;;;;5007880;28;20124;-50
2022/11/12 03:05:25;;;;;;;11.57;6.18;;;2.90;99.90;;;;;;4971057;28;20117;-54
2022/11/12 03:07:58;;;;;;;11.25;7.10;;;2.90;99.90;;;;;;5009932;28;20402;-51
2022/11/12 03:10:25;;;;;;;12.00;6.20;;;2.80;99.90;;;;;;4970744;28;20042;-53
2022/11/12 03:12:51;;;;;;;10.15;5.53;;;2.80;99.90;;;;;;4970773;28;20549;-52
2022/11/12 03:15:17;;;;;;;11.38;6.85;;;2.80;99.90;;;;;;5008374;28;20068;-49
2022/11/12 03:17:42;;;;;;;11.68;6.53;;;2.80;99.90;;;;;;4988747;28;20070;-50
2022/11/12 03:20:09;;;;;;;16.10;6.22;;;2.70;99.90;;;;;;5009128;28;20034;-50
2022/11/12 03:22:35;;;;;;;14.02;6.53;;;2.80;99.90;;;;;;4988663;28;20446;-53
2022/11/12 03:25:01;;;;;;;10.63;5.75;;;2.80;99.90;;;;;;5008819;28;20038;-51
2022/11/12 03:27:26;;;;;;;11.02;6.28;;;2.70;99.90;;;;;;4982510;28;20458;-53
2022/11/12 03:29:52;;;;;;;10.32;6.43;;;2.70;99.90;;;;;;5009043;28;20034;-50
2022/11/12 03:32:17;;;;;;;14.07;6.53;;;2.60;99.90;;;;;;4988489;28;20076;-53
2022/11/12 03:34:42;;;;;;;12.25;6.18;;;2.70;99.90;;;;;;5008547;28;20502;-51
2022/11/12 03:37:09;;;;;;;12.00;6.72;;;2.60;99.90;;;;;;4988405;28;20034;-53
2022/11/12 03:39:35;;;;;;;11.88;6.32;;;2.60;99.90;;;;;;5008602;28;20034;-51
2022/11/12 03:42:01;;;;;;;10.90;6.75;;;2.60;99.90;;;;;;4988227;28;20042;-54
2022/11/12 03:44:26;;;;;;;11.15;6.38;;;2.60;99.90;;;;;;5007746;28;20030;-52
2022/11/12 03:46:52;;;;;;;12.18;6.47;;;2.50;99.90;;;;;;4988318;28;20042;-53
2022/11/12 03:49:17;;;;;;;10.57;5.95;;;2.50;99.90;;;;;;5008279;28;20042;-51
2022/11/12 03:51:43;;;;;;;10.98;7.05;;;2.50;99.90;;;;;;4998633;28;20486;-50
2022/11/12 03:54:08;;;;;;;11.75;6.18;;;2.40;99.90;;;;;;4989745;28;20070;-48
2022/11/12 03:56:34;;;;;;;12.00;5.75;;;2.40;99.90;;;;;;5006237;28;20564;-54
2022/11/12 03:58:59;;;;;;;9.77;5.57;;;2.40;99.90;;;;;;4989856;28;20041;-54
2022/11/12 04:01:25;;;;;;;14.05;7.00;;;2.40;99.90;;;;;;5006544;28;20033;-54
2022/11/12 04:03:50;;;;;;;11.60;5.80;;;2.30;99.90;;;;;;4987983;28;20030;-53
2022/11/12 04:09:00;;;;;;;8.52;5.53;;;2.30;99.90;;;;;;4984903;28;20563;-54
2022/11/12 04:11:25;;;;;;;10.63;6.05;;;2.30;99.90;;;;;;5008373;28;20112;-53
2022/11/12 04:13:51;;;;;;;9.90;5.55;;;2.30;99.90;;;;;;4988044;28;20042;-53
2022/11/12 04:21:50;;;;;;;14.48;6.25;;;2.20;99.90;;;;;;4970159;28;20298;-52
2022/11/12 04:27:16;;;;;;;11.82;6.10;;;2.20;99.90;;;;;;4980793;28;20489;-48
2022/11/12 04:32:27;;;;;;;10.48;5.38;;;2.10;99.90;;;;;;4976207;28;20033;-53
2022/11/12 04:34:53;;;;;;;12.85;5.90;;;2.10;99.90;;;;;;5008625;28;20062;-50
2022/11/12 04:37:19;;;;;;;8.10;5.00;;;2.10;99.90;;;;;;4990525;28;20057;-57
2022/11/12 04:39:45;;;;;;;12.77;6.10;;;2.00;99.90;;;;;;4995004;28;20050;-51
2022/11/12 04:45:02;;;;;;;13.25;5.78;;;2.00;99.90;;;;;;5008671;28;20398;-51
2022/11/12 04:47:33;;;;;;;9.57;5.18;;;2.00;99.90;;;;;;4976087;28;20034;-50
2022/11/12 04:49:59;;;;;;;8.50;5.30;;;1.90;99.90;;;;;;5008571;28;20429;-51
2022/11/12 04:52:26;;;;;;;11.70;6.20;;;1.90;99.90;;;;;;4991146;28;20394;-47
2022/11/12 04:54:53;;;;;;;7.93;5.03;;;1.90;99.90;;;;;;5009519;28;20054;-52
2022/11/12 04:57:19;;;;;;;9.50;5.03;;;1.90;99.90;;;;;;4994205;28;20556;-48
2022/11/12 04:59:45;;;;;;;9.45;4.93;;;1.80;99.90;;;;;;5012524;28;20026;-54
2022/11/12 05:02:10;;;;;;;7.85;4.40;;;1.80;99.90;;;;;;4993109;28;20045;-53
2022/11/12 05:04:36;;;;;;;13.50;6.00;;;1.90;99.90;;;;;;5012432;28;20410;-49
2022/11/12 05:07:01;;;;;;;9.10;4.63;;;1.80;99.90;;;;;;4991872;28;20108;-50
2022/11/12 05:09:28;;;;;;;8.85;4.75;;;1.80;99.90;;;;;;5012222;28;20029;-51
2022/11/12 05:11:56;;;;;;;11.38;5.68;;;1.80;99.90;;;;;;4992947;28;20100;-54
2022/11/12 05:14:23;;;;;;;9.55;4.82;;;1.80;99.90;;;;;;4992543;28;20063;-46
2022/11/12 05:16:49;;;;;;;8.40;4.70;;;1.80;99.90;;;;;;5011536;28;20030;-53
2022/11/12 05:19:15;;;;;;;8.27;5.07;;;1.80;99.90;;;;;;4991020;28;20061;-54
2022/11/12 05:24:25;;;;;;;7.68;4.72;;;1.70;99.90;;;;;;4972903;28;20541;-53
2022/11/12 05:26:51;;;;;;;5.90;4.60;;;1.70;99.90;;;;;;5000816;28;20050;-48
2022/11/12 05:29:17;;;;;;;8.23;5.20;;;1.70;99.90;;;;;;4990507;28;20065;-49
2022/11/12 05:31:43;;;;;;;7.60;4.53;;;1.70;99.90;;;;;;5011194;28;20061;-48
2022/11/12 05:34:08;;;;;;;9.80;4.95;;;1.60;99.90;;;;;;4990884;28;20607;-52
2022/11/12 05:36:34;;;;;;;11.43;4.90;;;1.70;99.90;;;;;;5011000;28;20042;-45
2022/11/12 05:38:59;;;;;;;12.57;5.78;;;1.60;99.90;;;;;;4997654;28;20099;-46
2022/11/12 05:41:26;;;;;;;8.02;4.22;;;1.60;99.90;;;;;;5011867;28;20371;-47
2022/11/12 05:43:51;;;;;;;9.20;4.43;;;1.70;99.90;;;;;;4990791;28;20118;-45
2022/11/12 05:46:17;;;;;;;6.88;4.78;;;1.60;99.90;;;;;;5010877;28;20105;-46
2022/11/12 05:48:42;;;;;;;7.55;4.68;;;1.60;99.90;;;;;;4990793;28;20473;-47
2022/11/12 05:51:08;;;;;;;8.70;5.28;;;1.60;99.90;;;;;;5010774;28;20041;-48
2022/11/12 05:53:33;;;;;;;10.50;5.82;;;1.50;99.90;;;;;;4990433;28;20474;-44
2022/11/12 05:56:04;;;;;;;5.90;3.90;;;1.50;99.90;;;;;;5010746;28;20529;-46
2022/11/12 05:58:30;;;;;;;8.60;4.63;;;1.50;99.90;;;;;;4990221;28;20169;-44
2022/11/12 06:00:55;;;;;;;6.53;4.22;;;1.50;99.90;;;;;;5010771;28;20176;-48
2022/11/12 06:03:21;;;;;;;6.65;4.50;;;1.50;99.90;;;;;;4990451;28;20736;-48
2022/11/12 06:05:46;;;;;;;5.60;3.75;;;1.50;99.90;;;;;;5010533;28;20030;-44
2022/11/12 06:08:12;;;;;;;10.68;4.88;;;1.50;99.90;;;;;;4999813;28;20030;-45
2022/11/12 06:10:37;;;;;;;13.98;5.78;;;1.50;99.90;;;;;;4992120;28;20383;-50
2022/11/12 06:13:03;;;;;;;7.80;4.75;;;1.40;99.90;;;;;;5008402;28;20030;-44
2022/11/12 06:15:28;;;;;;;7.72;4.97;;;1.40;99.90;;;;;;4991850;28;20070;-46
2022/11/12 06:17:54;;;;;;;11.98;5.70;;;1.40;99.90;;;;;;5008374;28;20040;-44
2022/11/12 06:20:21;;;;;;;8.00;5.07;;;1.40;99.90;;;;;;4991779;28;20034;-48
2022/11/12 06:22:47;;;;;;;9.60;5.00;;;1.40;99.90;;;;;;5008440;28;20050;-49
2022/11/12 06:25:12;;;;;;;13.40;5.80;;;1.40;99.90;;;;;;5010876;28;20069;-49
2022/11/12 06:27:38;;;;;;;10.25;5.78;;;1.40;99.90;;;;;;4991581;28;20030;-44
2022/11/12 06:30:05;;;;;;;12.98;5.70;;;1.40;99.90;;;;;;4998158;28;20469;-45
2022/11/12 06:32:31;;;;;;;8.30;5.05;;;1.40;99.90;;;;;;4992837;28;20034;-46
2022/11/12 06:34:56;;;;;;;10.65;5.78;;;1.40;99.90;;;;;;4989381;28;20061;-52
2022/11/12 06:37:22;;;;;;;8.63;5.28;;;1.50;99.90;;;;;;5009898;28;20037;-43
2022/11/12 06:39:47;;;;;;;6.60;4.30;;;1.50;99.90;;;;;;4989550;28;20043;-43
2022/11/12 06:42:13;;;;;;;7.97;4.70;;;1.50;99.90;;;;;;4994957;28;20449;-47
2022/11/12 06:44:39;;;;;;;9.60;4.88;;;1.50;99.90;;;;;;4998875;28;20823;-48
2022/11/12 06:47:05;;;;;;;9.00;5.32;;;1.50;99.90;;;;;;4991573;28;20026;-47
2022/11/12 06:49:30;;;;;;;9.57;4.57;;;1.60;99.90;;;;;;5007880;28;20049;-46
2022/11/12 06:51:56;;;;;;;8.70;5.10;;;1.60;99.90;;;;;;4991454;28;20088;-49
2022/11/12 06:54:21;;;;;;;8.82;5.10;;;1.60;99.90;;;;;;5007523;28;20406;-49
2022/11/12 06:56:47;;;;;;;10.50;5.35;;;1.70;99.90;;;;;;4990926;28;20035;-48
2022/11/12 06:59:12;;;;;;;7.22;5.05;;;1.70;99.90;;;;;;5007476;28;20088;-46
2022/11/12 07:01:38;;;;;;;8.05;4.57;;;1.80;99.90;;;;;;5010374;28;20041;-47
2022/11/12 07:04:04;;;;;;;10.02;5.22;;;1.80;99.90;;;;;;4989205;28;20034;-43
2022/11/12 07:06:29;;;;;;;11.40;6.05;;;1.90;99.90;;;;;;5009528;28;20523;-43
2022/11/12 07:08:55;;;;;;;10.75;6.10;;;2.00;99.90;;;;;;4989137;28;20030;-45
2022/11/12 07:11:21;;;;;;;19.90;8.38;;;2.10;99.90;;;;;;5009180;28;20076;-46
2022/11/12 07:13:47;;;;;;;17.98;8.50;;;2.20;99.90;;;;;;4989366;28;20106;-47
2022/11/12 07:16:17;;;;;;;17.60;7.40;;;2.30;99.90;;;;;;4999724;28;20525;-48
2022/11/12 07:18:43;;;;;;;17.27;8.07;;;2.40;99.90;;;;;;4983785;28;20026;-45
2022/11/12 07:21:22;;;;;;;14.63;8.00;;;2.50;99.90;;;;;;5009290;28;20033;-47
2022/11/12 07:23:47;;;;;;;21.13;9.15;;;2.60;99.90;;;;;;4984988;28;20133;-51
2022/11/12 07:26:16;;;;;;;20.15;9.60;;;2.70;99.90;;;;;;5007235;28;20141;-46
2022/11/12 07:28:43;;;;;;;19.27;9.27;;;2.80;99.90;;;;;;4985081;28;20038;-44
2022/11/12 07:31:11;;;;;;;20.23;9.90;;;2.90;99.90;;;;;;5009231;28;20473;-47
2022/11/12 07:33:37;;;;;;;16.63;10.05;;;3.00;99.90;;;;;;4988447;28;20023;-47
2022/11/12 07:36:05;;;;;;;21.35;11.20;;;3.10;99.90;;;;;;5008758;28;20056;-47
2022/11/12 07:38:33;;;;;;;17.70;9.93;;;3.20;99.90;;;;;;4991240;28;20125;-51
2022/11/12 07:41:14;;;;;;;17.17;10.18;;;3.30;99.90;;;;;;5085994;28;20861;-46
2022/11/12 07:43:40;;;;;;;19.60;10.80;;;3.40;99.90;;;;;;5066015;28;20116;-47
2022/11/12 07:46:14;;;;;;;16.83;9.98;;;3.50;99.90;;;;;;5065847;28;20047;-47
2022/11/12 07:48:40;;;;;;;24.02;10.07;;;3.70;99.90;;;;;;5065920;28;20033;-44
2022/11/12 07:51:14;;;;;;;23.30;10.85;;;3.80;99.90;;;;;;5065601;28;20021;-44
2022/11/12 07:53:41;;;;;;;18.88;8.80;;;4.00;99.90;;;;;;5063998;28;20033;-46
2022/11/12 07:56:09;;;;;;;15.77;9.15;;;4.20;99.90;;;;;;5065812;28;20033;-45
2022/11/12 07:58:34;;;;;;;17.48;9.88;;;4.30;99.90;;;;;;5105189;28;20492;-46
2022/11/12 08:01:30;;;;;;;17.10;10.40;;;4.50;99.90;;;;;;5084509;28;20075;-48
2022/11/12 08:03:57;;;;;;;20.70;11.80;;;4.60;99.90;;;;;;5064374;28;20079;-49
2022/11/12 08:06:23;;;;;;;18.75;7.78;;;4.80;99.90;;;;;;5085656;28;20028;-45
2022/11/12 08:08:53;;;;;;;15.95;9.00;;;4.90;99.90;;;;;;5103384;28;20031;-45
2022/11/12 08:11:18;;;;;;;20.40;9.27;;;5.10;99.90;;;;;;5105583;28;20008;-44
2022/11/12 08:13:44;;;;;;;38.22;10.93;;;5.20;99.90;;;;;;5083856;28;20040;-43
2022/11/12 08:16:09;;;;;;;32.13;10.65;;;5.30;99.90;;;;;;5085658;28;20024;-48
2022/11/12 08:18:35;;;;;;;16.52;7.43;;;5.50;99.90;;;;;;5102831;28;20369;-47
2022/11/12 08:21:02;;;;;;;19.40;10.77;;;5.60;99.90;;;;;;5085608;28;20035;-45
2022/11/12 08:23:28;;;;;;;13.75;8.32;;;5.80;99.90;;;;;;5104679;28;20538;-45
2022/11/12 08:25:58;;;;;;;17.73;7.97;;;5.90;99.90;;;;;;5084115;28;20103;-44
2022/11/12 08:28:23;;;;;;;18.13;7.63;;;6.00;99.90;;;;;;5099548;28;20119;-48
2022/11/12 08:30:49;;;;;;;10.32;6.72;;;6.10;99.90;;;;;;5083883;28;20103;-45
2022/11/12 08:33:14;;;;;;;9.18;5.45;;;6.30;99.90;;;;;;5104736;28;20040;-46
2022/11/12 08:35:40;;;;;;;11.02;6.20;;;6.40;99.90;;;;;;5072404;28;20032;-45
2022/11/12 08:38:09;;;;;;;11.00;5.88;;;6.60;99.90;;;;;;5084056;28;20479;-48
2022/11/12 08:40:36;;;;;;;15.13;7.55;;;6.70;99.90;;;;;;5062566;28;20060;-47
2022/11/12 08:43:07;;;;;;;13.07;6.90;;;6.80;99.90;;;;;;5084363;28;20040;-43
2022/11/12 08:45:35;;;;;;;14.07;8.38;;;6.90;99.90;;;;;;5062804;28;20039;-45
2022/11/12 08:48:03;;;;;;;14.95;7.55;;;7.00;99.90;;;;;;5084558;28;20052;-51
2022/11/12 08:50:30;;;;;;;12.60;7.72;;;7.20;99.90;;;;;;5068944;28;20098;-45
2022/11/12 08:53:07;;;;;;;14.90;7.55;;;7.30;99.90;;;;;;5051191;28;20032;-48
2022/11/12 08:55:33;;;;;;;13.32;7.72;;;7.40;99.90;;;;;;5052138;28;20377;-45
2022/11/12 08:58:01;;;;;;;9.93;7.43;;;7.50;99.90;;;;;;5070413;28;20028;-43
2022/11/12 09:00:28;;;;;;;10.30;6.88;;;7.60;99.90;;;;;;5049437;28;20090;-44
2022/11/12 09:02:53;;;;;;;9.38;6.50;;;7.70;99.90;;;;;;5070433;28;20609;-46
2022/11/12 09:05:19;;;;;;;12.90;6.88;;;7.90;99.90;;;;;;5049663;28;20086;-46
2022/11/12 09:07:45;;;;;;;11.95;6.70;;;8.00;99.90;;;;;;5070386;28;20051;-49
2022/11/12 09:10:10;;;;;;;11.07;6.45;;;8.10;99.90;;;;;;5049330;28;20440;-47
2022/11/12 09:12:36;;;;;;;13.20;7.75;;;8.10;99.90;;;;;;5060380;28;20912;-47
2022/11/12 09:15:01;;;;;;;11.80;7.38;;;8.20;99.90;;;;;;5040140;28;20041;-44
2022/11/12 09:17:28;;;;;;;11.57;6.65;;;8.20;99.90;;;;;;5063403;28;20043;-48
2022/11/12 09:19:53;;;;;;;10.73;7.20;;;8.30;99.90;;;;;;5067340;28;20427;-46
2022/11/12 09:22:19;;;;;;;9.98;7.00;;;8.40;99.90;;;;;;5054274;28;20043;-46
2022/11/12 09:24:44;;;;;;;11.60;7.75;;;8.50;99.90;;;;;;5065724;28;20107;-48
2022/11/12 09:27:10;;;;;;;14.80;7.72;;;8.70;99.90;;;;;;5051470;28;20040;-53
2022/11/12 09:29:35;;;;;;;17.17;8.95;;;9.00;99.90;;;;;;5046895;28;20408;-48
2022/11/12 09:32:00;;;;;;;8.73;6.47;;;9.10;99.90;;;;;;5047760;28;20029;-50
2022/11/12 09:34:26;;;;;;;11.65;6.80;;;9.20;99.90;;;;;;5061423;28;20047;-53
2022/11/12 09:36:51;;;;;;;11.23;7.63;;;9.30;99.90;;;;;;5066906;28;20033;-47
2022/11/12 09:39:17;;;;;;;11.40;7.82;;;9.40;99.90;;;;;;5054971;28;20079;-45
2022/11/12 09:41:42;;;;;;;10.43;6.47;;;9.50;99.90;;;;;;5048170;28;20393;-49
2022/11/12 09:44:17;;;;;;;10.95;7.70;;;9.50;99.90;;;;;;5065155;28;20036;-48
2022/11/12 09:47:01;;;;;;;12.95;7.80;;;9.50;99.90;;;;;;5054577;28;20024;-46
2022/11/12 09:49:42;;;;;;;11.73;7.75;;;9.60;99.90;;;;;;5045919;28;20202;-46
2022/11/12 09:52:20;;;;;;;16.10;9.35;;;9.70;99.90;;;;;;5027990;28;20037;-48
2022/11/12 09:54:53;;;;;;;18.60;9.52;;;9.60;99.90;;;;;;5038519;28;20047;-49
2022/11/12 09:57:19;;;;;;;16.70;8.85;;;9.50;99.90;;;;;;5034223;28;20033;-46
2022/11/12 09:59:44;;;;;;;16.88;9.93;;;9.50;99.90;;;;;;5049901;28;20063;-44
2022/11/12 10:02:51;;;;;;;20.17;11.18;;;9.50;99.90;;;;;;5051215;28;20087;-51
2022/11/12 10:05:39;;;;;;;15.65;9.45;;;9.50;99.90;;;;;;5042849;28;20033;-46
2022/11/12 10:08:27;;;;;;;17.50;9.02;;;9.60;99.90;;;;;;5027489;28;20778;-48
2022/11/12 10:11:10;;;;;;;15.70;9.00;;;9.60;99.90;;;;;;5027744;28;20029;-49
2022/11/12 10:14:00;;;;;;;15.48;9.93;;;9.70;99.90;;;;;;5031257;28;20730;-45
2022/11/12 10:16:56;;;;;;;17.95;10.55;;;9.60;99.90;;;;;;5061598;28;20113;-45
2022/11/12 10:20:19;;;;;;;16.33;9.75;;;9.70;99.90;;;;;;5046108;28;20041;-49
2022/11/12 10:23:21;;;;;;;15.43;9.73;;;9.80;99.90;;;;;;4964013;28;20042;-51
2022/11/12 10:25:49;;;;;;;14.85;9.65;;;9.80;99.90;;;;;;5046716;28;20036;-46
2022/11/12 10:28:32;;;;;;;19.63;11.75;;;9.90;99.90;;;;;;5058329;28;20032;-46
2022/11/12 10:31:04;;;;;;;18.50;11.38;;;9.90;99.90;;;;;;5066123;28;20029;-43
2022/11/12 10:33:30;;;;;;;15.23;9.27;;;9.90;99.90;;;;;;5027698;28;20033;-43
2022/11/12 10:36:10;;;;;;;16.00;10.27;;;10.10;99.90;;;;;;5050468;28;20028;-46
2022/11/12 10:38:37;;;;;;;17.33;9.80;;;10.10;99.90;;;;;;5041083;28;20038;-46
2022/11/12 10:41:18;;;;;;;17.98;10.93;;;10.20;99.90;;;;;;5066544;28;20044;-44
2022/11/12 10:43:57;;;;;;;14.18;9.55;;;10.30;99.90;;;;;;5039241;28;20032;-46
2022/11/12 10:46:25;;;;;;;15.18;9.02;;;10.40;99.90;;;;;;5026753;28;20030;-43
2022/11/12 10:48:58;;;;;;;16.35;9.30;;;10.50;99.90;;;;;;5058080;28;20024;-48
2022/11/12 10:51:28;;;;;;;15.68;10.02;;;10.60;99.90;;;;;;5048720;28;20021;-45
2022/11/12 10:53:54;;;;;;;16.83;9.60;;;10.60;99.90;;;;;;5037032;28;20067;-49
2022/11/12 10:56:26;;;;;;;15.18;10.07;;;10.70;99.90;;;;;;5068486;28;20060;-46
2022/11/12 10:59:07;;;;;;;16.52;9.52;;;10.70;99.90;;;;;;5051261;28;20024;-47
2022/11/12 11:01:33;;;;;;;12.38;8.00;;;10.80;99.90;;;;;;5068903;28;20032;-46
2022/11/12 11:03:59;;;;;;;11.88;8.10;;;10.90;99.90;;;;;;5053573;28;20108;-45
2022/11/12 11:06:25;;;;;;;13.80;8.60;;;11.00;99.90;;;;;;5068563;28;20020;-47
2022/11/12 11:09:06;;;;;;;14.85;8.38;;;11.00;99.90;;;;;;5052379;28;20032;-50
2022/11/12 11:11:32;;;;;;;12.10;8.30;;;11.10;99.90;;;;;;5068829;28;20029;-49
2022/11/12 11:14:33;;;;;;;13.52;7.70;;;11.20;99.90;;;;;;5052887;28;20036;-44
2022/11/12 11:17:07;;;;;;;12.15;8.30;;;11.30;99.90;;;;;;5048687;28;20044;-44
2022/11/12 11:19:39;;;;;;;11.07;7.93;;;11.30;99.90;;;;;;5048468;28;20043;-51
2022/11/12 11:22:38;;;;;;;16.13;7.88;;;11.40;99.90;;;;;;5048592;28;20100;-43
2022/11/12 11:25:13;;;;;;;9.63;6.30;;;11.40;99.90;;;;;;5046893;28;20032;-49
2022/11/12 11:28:06;;;;;;;10.93;6.40;;;11.40;99.90;;;;;;5046450;28;20109;-46
2022/11/12 11:30:32;;;;;;;9.50;6.10;;;11.40;99.90;;;;;;5045826;28;20029;-48
2022/11/12 11:33:28;;;;;;;10.93;7.03;;;11.50;99.90;;;;;;5067575;28;20093;-45
2022/11/12 11:36:08;;;;;;;10.98;6.45;;;11.50;99.90;;;;;;5068269;28;20497;-44
2022/11/12 11:38:58;;;;;;;13.52;7.68;;;11.50;99.90;;;;;;5031849;28;20619;-44
2022/11/12 11:42:01;;;;;;;10.57;7.05;;;11.50;99.90;;;;;;5068542;28;20060;-49
2022/11/12 11:44:49;;;;;;;9.48;6.03;;;11.50;99.90;;;;;;5032053;28;20451;-50
2022/11/12 11:47:27;;;;;;;10.40;6.45;;;11.60;99.90;;;;;;5028554;28;20497;-44
2022/11/12 11:50:05;;;;;;;10.55;7.38;;;11.60;99.90;;;;;;5040202;28;20074;-50
2022/11/12 11:52:45;;;;;;;16.63;6.65;;;11.70;99.90;;;;;;5028444;28;20036;-49
2022/11/12 11:55:27;;;;;;;8.98;6.75;;;11.70;99.90;;;;;;5043004;28;20029;-48
2022/11/12 11:58:31;;;;;;;11.48;7.18;;;11.70;99.90;;;;;;5028227;28;20022;-46
2022/11/12 12:01:27;;;;;;;12.07;6.25;;;11.70;99.90;;;;;;5021472;28;20048;-52
2022/11/12 12:04:21;;;;;;;11.13;6.10;;;11.70;99.90;;;;;;5037268;28;20028;-46
2022/11/12 12:07:19;;;;;;;9.73;5.82;;;11.70;99.90;;;;;;5028417;28;20041;-46
2022/11/12 12:10:03;;;;;;;9.43;5.85;;;11.70;99.90;;;;;;5050987;28;20721;-47
2022/11/12 12:12:44;;;;;;;12.48;6.20;;;11.70;99.90;;;;;;5028355;28;20033;-46
2022/11/12 12:15:34;;;;;;;11.45;6.25;;;11.70;99.90;;;;;;5042349;28;20043;-47
2022/11/12 12:18:22;;;;;;;8.52;5.28;;;11.70;99.90;;;;;;5026907;28;20033;-51
2022/11/12 12:21:13;;;;;;;9.15;4.75;;;11.70;99.90;;;;;;5028003;28;20033;-47
2022/11/12 12:23:50;;;;;;;9.18;4.68;;;11.70;99.90;;;;;;5065901;28;20119;-48
2022/11/12 12:26:37;;;;;;;8.20;4.38;;;11.70;99.90;;;;;;5067715;28;20020;-42
2022/11/12 12:29:13;;;;;;;8.45;4.15;;;11.80;99.90;;;;;;5056527;28;20035;-46
2022/11/12 12:31:44;;;;;;;10.18;4.28;;;11.80;99.90;;;;;;5071798;28;20028;-52
2022/11/12 12:34:25;;;;;;;7.28;4.40;;;11.80;99.90;;;;;;5045023;28;20060;-49
2022/11/12 12:36:55;;;;;;;9.45;4.35;;;11.70;99.90;;;;;;5031702;28;20041;-50
2022/11/12 12:40:00;;;;;;;8.98;4.18;;;11.70;99.90;;;;;;5047686;28;20036;-52
2022/11/12 12:42:38;;;;;;;8.00;4.05;;;11.70;99.90;;;;;;5051602;28;20405;-49
2022/11/12 12:45:28;;;;;;;6.88;3.88;;;11.70;99.90;;;;;;5045079;28;20532;-47
2022/11/12 12:47:55;;;;;;;5.57;3.25;;;11.70;99.90;;;;;;5031665;28;20172;-51
2022/11/12 12:50:22;;;;;;;6.78;3.92;;;11.70;99.90;;;;;;5050753;28;20033;-49
2022/11/12 12:53:04;;;;;;;7.65;3.85;;;11.70;99.90;;;;;;5070719;28;20024;-46
2022/11/12 12:55:41;;;;;;;6.22;3.97;;;11.70;99.90;;;;;;5049768;28;20025;-47
2022/11/12 12:58:27;;;;;;;6.05;3.83;;;11.70;99.90;;;;;;5031420;28;20033;-48
2022/11/12 13:01:02;;;;;;;5.70;3.85;;;11.70;99.90;;;;;;5031257;28;20037;-43
2022/11/12 13:03:42;;;;;;;6.97;2.97;;;11.70;99.90;;;;;;5032921;28;20026;-45
2022/11/12 13:06:14;;;;;;;7.82;3.38;;;11.70;99.90;;;;;;5071230;28;20024;-44
2022/11/12 13:08:40;;;;;;;5.45;2.95;;;11.70;99.90;;;;;;5036203;28;20016;-45
2022/11/12 13:11:05;;;;;;;6.97;3.17;;;11.70;99.90;;;;;;5071113;28;20048;-44
2022/11/12 13:13:35;;;;;;;6.13;3.38;;;11.70;99.90;;;;;;5051587;28;20765;-45
2022/11/12 13:16:01;;;;;;;8.93;3.53;;;11.70;99.90;;;;;;5071030;28;20111;-43
2022/11/12 13:18:39;;;;;;;5.63;3.28;;;11.70;99.90;;;;;;5050723;28;20100;-47
2022/11/12 13:21:19;;;;;;;6.85;3.33;;;11.70;99.90;;;;;;5054909;28;20370;-45
2022/11/12 13:24:07;;;;;;;7.15;3.60;;;11.70;99.90;;;;;;5068406;28;20103;-47